createdAt,value
2019-01-11T00:01:00.160Z,99.96
2019-01-11T00:03:29.245Z,99.62
2019-01-11T00:05:58.183Z,100.00
2019-01-11T00:08:26.942Z,100.00
2019-01-11T00:10:55.619Z,100.00
2019-01-11T00:13:24.242Z,99.65
2019-01-11T00:15:53.124Z,99.14
2019-01-11T00:18:21.775Z,98.96
2019-01-11T00:20:50.459Z,98.85
2019-01-11T00:23:19.130Z,98.48
2019-01-11T00:25:47.741Z,97.67
2019-01-11T00:28:16.506Z,98.31
2019-01-11T00:30:45.232Z,97.76
2019-01-11T00:33:13.926Z,97.64
2019-01-11T00:35:42.566Z,97.76
2019-01-11T00:38:11.233Z,100.00
2019-01-11T00:40:39.941Z,99.81
2019-01-11T00:43:14.873Z,100.00
2019-01-11T00:45:38.963Z,100.00
2019-01-11T00:48:07.589Z,100.00
2019-01-11T00:50:36.233Z,100.00
2019-01-11T00:53:05.094Z,99.62
2019-01-11T00:55:33.718Z,99.75
2019-01-11T00:58:02.362Z,98.76
2019-01-11T01:00:31.026Z,98.52
2019-01-11T01:02:59.725Z,97.89
2019-01-11T01:05:28.438Z,96.55
2019-01-11T01:07:57.371Z,96.37
2019-01-11T01:10:26.780Z,97.18
2019-01-11T01:12:55.408Z,97.19
2019-01-11T01:18:05.468Z,96.90
2019-01-11T01:20:34.547Z,96.56
2019-01-11T01:23:03.240Z,96.50
2019-01-11T01:25:31.904Z,95.79
2019-01-11T01:28:00.601Z,95.94
2019-01-11T01:30:29.227Z,95.95
2019-01-11T01:32:58.053Z,96.24
2019-01-11T01:35:26.680Z,95.85
2019-01-11T01:37:55.369Z,96.81
2019-01-11T01:40:24.096Z,97.15
2019-01-11T01:42:52.713Z,97.64
2019-01-11T01:45:21.610Z,97.63
2019-01-11T01:47:50.339Z,97.59
2019-01-11T01:50:18.976Z,97.29
2019-01-11T01:52:47.688Z,97.65
2019-01-11T01:55:16.611Z,98.16
2019-01-11T01:57:45.237Z,98.08
2019-01-11T02:00:20.332Z,98.12
2019-01-11T02:02:49.222Z,98.54
2019-01-11T02:05:17.929Z,98.89
2019-01-11T02:07:46.558Z,98.42
2019-01-11T02:10:15.811Z,97.96
2019-01-11T02:12:44.510Z,98.24
2019-01-11T02:15:13.526Z,98.68
2019-01-11T02:17:42.346Z,98.76
2019-01-11T02:20:14.183Z,99.26
2019-01-11T02:22:43.115Z,99.68
2019-01-11T02:25:11.814Z,99.51
2019-01-11T02:27:40.438Z,99.19
2019-01-11T02:30:17.980Z,99.24
2019-01-11T02:32:52.358Z,100.00
2019-01-11T02:35:17.152Z,100.00
2019-01-11T02:37:45.856Z,100.00
2019-01-11T02:40:14.688Z,100.00
2019-01-11T02:42:43.441Z,100.00
2019-01-11T02:45:15.357Z,100.00
2019-01-11T02:47:43.988Z,100.00
2019-01-11T02:50:13.692Z,100.00
2019-01-11T02:52:42.381Z,100.00
2019-01-11T02:55:11.147Z,99.96
2019-01-11T02:57:39.855Z,99.44
2019-01-11T03:00:15.013Z,99.59
2019-01-11T03:02:43.708Z,100.00
2019-01-11T03:05:12.844Z,99.74
2019-01-11T03:07:41.533Z,99.71
2019-01-11T03:10:13.147Z,99.97
2019-01-11T03:12:41.776Z,99.76
2019-01-11T03:15:11.850Z,99.64
2019-01-11T03:17:40.748Z,99.80
2019-01-11T03:20:12.336Z,99.58
2019-01-11T03:22:41.070Z,99.46
2019-01-11T03:25:12.193Z,99.57
2019-01-11T03:27:40.991Z,99.81
2019-01-11T03:30:13.040Z,99.19
2019-01-11T03:32:41.736Z,98.74
2019-01-11T03:35:14.677Z,98.83
2019-01-11T03:37:44.060Z,99.17
2019-01-11T03:40:15.579Z,99.38
2019-01-11T03:42:44.413Z,99.36
2019-01-11T03:45:15.743Z,99.08
2019-01-11T03:47:44.434Z,99.34
2019-01-11T03:50:15.664Z,99.64
2019-01-11T03:52:44.633Z,99.68
2019-01-11T03:55:14.545Z,99.86
2019-01-11T03:57:43.303Z,100.00
2019-01-11T04:00:18.173Z,99.41
2019-01-11T04:02:46.993Z,99.79
2019-01-11T04:05:15.932Z,99.64
2019-01-11T04:07:44.926Z,99.37
2019-01-11T04:10:16.250Z,99.25
2019-01-11T04:12:44.866Z,99.20
2019-01-11T04:15:16.015Z,99.40
2019-01-11T04:17:45.020Z,99.68
2019-01-11T04:20:18.800Z,99.99
2019-01-11T04:22:49.336Z,100.00
2019-01-11T04:25:19.756Z,99.50
2019-01-11T04:27:48.471Z,99.73
2019-01-11T04:30:17.613Z,99.74
2019-01-11T04:32:46.242Z,99.65
2019-01-11T04:35:15.556Z,99.24
2019-01-11T04:37:44.305Z,99.38
2019-01-11T04:40:14.815Z,99.18
2019-01-11T04:42:43.445Z,98.32
2019-01-11T04:45:12.278Z,97.57
2019-01-11T04:47:40.980Z,97.18
2019-01-11T04:50:12.212Z,97.04
2019-01-11T04:52:40.844Z,97.06
2019-01-11T04:55:09.756Z,96.73
2019-01-11T04:57:38.723Z,95.87
2019-01-11T05:00:13.470Z,95.51
2019-01-11T05:02:42.087Z,95.20
2019-01-11T05:05:10.757Z,94.86
2019-01-11T05:07:39.467Z,94.36
2019-01-11T05:10:13.525Z,94.83
2019-01-11T05:12:45.284Z,95.16
2019-01-11T05:15:14.126Z,95.91
2019-01-11T05:17:42.818Z,95.91
2019-01-11T05:20:16.666Z,96.31
2019-01-11T05:22:43.694Z,96.76
2019-01-11T05:25:12.406Z,96.66
2019-01-11T05:27:41.078Z,96.58
2019-01-11T05:30:12.682Z,96.79
2019-01-11T05:32:41.389Z,96.06
2019-01-11T05:35:10.225Z,96.38
2019-01-11T05:37:38.848Z,96.19
2019-01-11T05:40:16.053Z,96.57
2019-01-11T05:42:44.755Z,96.51
2019-01-11T05:45:13.662Z,96.54
2019-01-11T05:47:42.927Z,96.69
2019-01-11T05:50:24.094Z,96.30
2019-01-11T05:52:48.528Z,94.96
2019-01-11T05:55:18.817Z,93.67
2019-01-11T05:57:49.073Z,93.14
2019-01-11T06:00:17.822Z,93.27
2019-01-11T06:02:46.450Z,92.79
2019-01-11T06:05:15.102Z,92.23
2019-01-11T06:07:45.243Z,92.22
2019-01-11T06:10:15.391Z,92.29
2019-01-11T06:12:44.018Z,91.85
2019-01-11T06:15:12.806Z,92.32
2019-01-11T06:17:41.466Z,92.81
2019-01-11T06:20:13.443Z,91.51
2019-01-11T06:22:42.170Z,88.76
2019-01-11T06:25:10.796Z,85.26
2019-01-11T06:27:39.489Z,83.10
2019-01-11T06:30:11.272Z,81.25
2019-01-11T06:32:39.986Z,80.30
2019-01-11T06:35:08.692Z,78.38
2019-01-11T06:37:37.377Z,76.98
2019-01-11T06:40:09.065Z,76.03
2019-01-11T06:42:37.943Z,75.93
2019-01-11T06:45:09.684Z,76.14
2019-01-11T06:47:39.184Z,75.73
2019-01-11T06:50:13.725Z,76.77
2019-01-11T06:52:42.622Z,79.68
2019-01-11T06:55:12.158Z,79.68
2019-01-11T06:57:40.862Z,79.59
2019-01-11T07:00:14.887Z,79.06
2019-01-11T07:02:43.715Z,74.96
2019-01-11T07:05:12.521Z,74.96
2019-01-11T07:07:41.226Z,74.23
2019-01-11T07:10:15.466Z,71.98
2019-01-11T07:12:44.093Z,69.56
2019-01-11T07:15:13.143Z,66.42
2019-01-11T07:17:41.835Z,64.41
2019-01-11T07:20:12.939Z,62.62
2019-01-11T07:22:41.714Z,62.40
2019-01-11T07:25:15.117Z,58.05
2019-01-11T07:27:45.379Z,57.12
2019-01-11T07:30:15.850Z,55.75
2019-01-11T07:32:44.557Z,55.42
2019-01-11T07:35:13.311Z,55.66
2019-01-11T07:37:42.325Z,56.50
2019-01-11T07:40:12.916Z,56.08
2019-01-11T07:42:41.638Z,54.48
2019-01-11T07:45:12.813Z,55.55
2019-01-11T07:47:41.515Z,54.70
2019-01-11T07:50:10.913Z,54.59
2019-01-11T07:52:40.255Z,54.21
2019-01-11T07:55:09.821Z,54.22
2019-01-11T07:57:38.548Z,55.11
2019-01-11T08:00:14.075Z,56.75
2019-01-11T08:02:42.694Z,60.39
2019-01-11T08:05:11.353Z,60.90
2019-01-11T08:07:40.273Z,61.74
2019-01-11T08:10:11.468Z,63.13
2019-01-11T08:12:40.095Z,62.15
2019-01-11T08:15:17.597Z,65.05
2019-01-11T08:17:46.257Z,65.91
2019-01-11T08:20:14.949Z,66.38
2019-01-11T08:25:18.113Z,67.19
2019-01-11T08:27:46.829Z,67.96
2019-01-11T08:30:18.358Z,68.68
2019-01-11T08:32:47.045Z,68.75
2019-01-11T08:35:16.031Z,69.79
2019-01-11T08:37:45.626Z,69.15
2019-01-11T08:40:17.228Z,69.21
2019-01-11T08:42:45.851Z,69.59
2019-01-11T08:45:15.077Z,68.86
2019-01-11T08:47:43.916Z,68.85
2019-01-11T08:50:17.999Z,68.53
2019-01-11T08:52:47.101Z,68.29
2019-01-11T08:55:15.832Z,69.40
2019-01-11T08:57:44.524Z,70.55
2019-01-11T09:00:17.026Z,69.21
2019-01-11T09:02:45.976Z,68.75
2019-01-11T09:05:14.729Z,70.79
2019-01-11T09:07:43.362Z,69.90
2019-01-11T09:10:22.848Z,70.83
2019-01-11T09:12:48.139Z,70.93
2019-01-11T09:15:16.968Z,70.42
2019-01-11T09:17:47.261Z,69.37
2019-01-11T09:20:15.882Z,68.80
2019-01-11T09:22:44.488Z,68.03
2019-01-11T09:25:13.363Z,67.79
2019-01-11T09:30:17.950Z,68.02
2019-01-11T09:32:46.829Z,68.79
2019-01-11T09:35:16.105Z,68.49
2019-01-11T09:37:44.848Z,67.82
2019-01-11T09:40:13.582Z,69.55
2019-01-11T09:42:42.288Z,69.95
2019-01-11T09:45:10.953Z,69.82
2019-01-11T09:47:39.662Z,71.26
2019-01-11T09:50:10.074Z,70.60
2019-01-11T09:52:39.004Z,71.30
2019-01-11T09:55:08.722Z,69.52
2019-01-11T09:57:37.429Z,69.02
2019-01-11T10:00:12.034Z,69.88
2019-01-11T10:02:40.995Z,70.26
2019-01-11T10:05:10.321Z,69.98
2019-01-11T10:07:39.213Z,70.74
2019-01-11T10:10:10.699Z,70.82
2019-01-11T10:12:39.327Z,69.53
2019-01-11T10:15:10.570Z,70.81
2019-01-11T10:17:39.368Z,71.36
2019-01-11T10:20:10.508Z,72.12
2019-01-11T10:22:39.178Z,71.29
2019-01-11T10:25:09.914Z,70.78
2019-01-11T10:27:38.625Z,71.10
2019-01-11T10:30:10.571Z,71.07
2019-01-11T10:32:39.216Z,70.75
2019-01-11T10:35:09.235Z,70.95
2019-01-11T10:37:38.079Z,69.83
2019-01-11T10:40:09.359Z,71.17
2019-01-11T10:42:37.987Z,70.98
2019-01-11T10:45:09.554Z,71.19
2019-01-11T10:47:38.187Z,70.89
2019-01-11T10:50:12.666Z,71.18
2019-01-11T10:52:41.645Z,72.05
2019-01-11T10:55:12.540Z,72.99
2019-01-11T10:57:41.640Z,72.06
2019-01-11T11:00:13.591Z,73.02
2019-01-11T11:02:42.287Z,71.77
2019-01-11T11:05:10.997Z,71.96
2019-01-11T11:07:39.623Z,71.99
2019-01-11T11:10:10.746Z,71.40
2019-01-11T11:12:39.488Z,70.76
2019-01-11T11:15:10.999Z,72.39
2019-01-11T11:17:39.635Z,71.90
2019-01-11T11:20:11.128Z,71.87
2019-01-11T11:22:39.833Z,71.45
2019-01-11T11:25:11.465Z,72.22
2019-01-11T11:27:40.134Z,73.71
2019-01-11T11:30:11.646Z,74.33
2019-01-11T11:32:59.616Z,75.80
2019-01-11T11:35:28.410Z,76.68
2019-01-11T11:37:57.127Z,76.49
2019-01-11T11:40:33.622Z,77.04
2019-01-11T11:43:02.319Z,76.56
2019-01-11T11:45:30.965Z,77.26
2019-01-11T11:47:59.751Z,78.10
2019-01-11T11:50:28.458Z,78.86
2019-01-11T11:52:57.170Z,79.29
2019-01-11T11:55:25.884Z,78.48
2019-01-11T11:57:54.634Z,76.38
2019-01-11T12:00:25.224Z,77.42
2019-01-11T12:02:53.963Z,79.04
2019-01-11T12:05:22.669Z,79.64
2019-01-11T12:07:51.436Z,80.60
2019-01-11T12:10:20.498Z,80.56
2019-01-11T12:12:49.129Z,78.54
2019-01-11T12:15:17.840Z,80.43
2019-01-11T12:17:46.532Z,79.88
2019-01-11T12:20:18.079Z,79.59
2019-01-11T12:22:46.709Z,79.49
2019-01-11T12:25:15.389Z,80.35
2019-01-11T12:27:44.100Z,79.59
2019-01-11T12:30:14.927Z,80.04
2019-01-11T12:32:43.850Z,81.61
2019-01-11T12:35:12.485Z,81.00
2019-01-11T12:37:41.184Z,80.33
2019-01-11T12:40:12.559Z,80.89
2019-01-11T12:42:41.258Z,79.00
2019-01-11T12:45:15.276Z,78.79
2019-01-11T12:47:43.906Z,78.56
2019-01-11T12:50:21.301Z,78.32
2019-01-11T12:52:50.032Z,79.53
2019-01-11T12:55:18.668Z,78.93
2019-01-11T12:57:47.307Z,79.09
2019-01-11T13:00:17.860Z,79.59
2019-01-11T13:02:46.663Z,79.41
2019-01-11T13:05:17.857Z,78.01
2019-01-11T13:07:49.578Z,77.39
2019-01-11T13:10:19.572Z,76.99
2019-01-11T13:12:48.292Z,77.31
2019-01-11T13:15:18.858Z,78.21
2019-01-11T13:17:47.570Z,78.39
2019-01-11T13:20:18.007Z,80.57
2019-01-11T13:22:46.735Z,81.52
2019-01-11T13:25:15.462Z,82.08
2019-01-11T13:27:44.166Z,83.29
2019-01-11T13:30:17.506Z,83.94
2019-01-11T13:32:46.433Z,83.94
2019-01-11T13:35:15.207Z,85.59
2019-01-11T13:37:44.133Z,87.52
2019-01-11T13:40:21.138Z,86.33
2019-01-11T13:42:50.090Z,87.18
2019-01-11T13:45:18.796Z,87.18
2019-01-11T13:47:47.439Z,86.13
2019-01-11T13:50:19.090Z,86.13
2019-01-11T13:52:47.727Z,85.11
2019-01-11T13:55:16.402Z,84.32
2019-01-11T13:57:45.442Z,84.46
2019-01-11T14:00:14.921Z,84.46
2019-01-11T14:02:43.568Z,82.96
2019-01-11T14:05:12.374Z,82.96
2019-01-11T14:07:41.071Z,82.64
2019-01-11T14:10:09.745Z,82.95
2019-01-11T14:12:38.364Z,82.70
2019-01-11T14:15:09.555Z,84.21
2019-01-11T14:17:38.307Z,84.13
2019-01-11T14:20:11.706Z,82.51
2019-01-11T14:22:40.330Z,81.76
2019-01-11T14:25:11.059Z,81.81
2019-01-11T14:27:39.702Z,82.12
2019-01-11T14:30:14.124Z,81.72
2019-01-11T14:32:43.187Z,80.75
2019-01-11T14:35:11.840Z,78.51
2019-01-11T14:37:40.478Z,79.47
2019-01-11T14:40:12.190Z,79.51
2019-01-11T14:42:40.817Z,79.13
2019-01-11T14:45:12.328Z,78.59
2019-01-11T14:47:41.009Z,78.57
2019-01-11T14:50:17.496Z,79.16
2019-01-11T14:52:46.725Z,79.16
2019-01-11T14:55:15.370Z,79.76
2019-01-11T14:57:44.076Z,80.32
2019-01-11T15:00:21.126Z,80.80
2019-01-11T15:02:49.745Z,80.94
2019-01-11T15:05:19.469Z,81.22
2019-01-11T15:07:48.609Z,81.73
2019-01-11T15:10:17.649Z,81.73
2019-01-11T15:12:47.491Z,81.31
2019-01-11T15:15:16.461Z,80.33
2019-01-11T15:17:45.164Z,81.76
2019-01-11T15:20:15.884Z,80.55
2019-01-11T15:22:44.727Z,80.86
2019-01-11T15:25:13.425Z,79.79
2019-01-11T15:27:42.124Z,79.11
2019-01-11T15:30:22.645Z,79.46
2019-01-11T15:32:51.269Z,80.01
2019-01-11T15:35:20.000Z,80.81
2019-01-11T15:37:48.962Z,80.41
2019-01-11T15:40:25.296Z,80.25
2019-01-11T15:42:53.982Z,80.61
2019-01-11T15:45:22.764Z,81.15
2019-01-11T15:47:51.475Z,80.16
2019-01-11T15:50:53.564Z,80.25
2019-01-11T15:53:22.249Z,79.78
2019-01-11T15:55:50.882Z,80.05
2019-01-11T15:58:19.517Z,80.59
2019-01-11T16:00:49.321Z,80.97
2019-01-11T16:03:18.017Z,80.21
2019-01-11T16:05:46.656Z,80.03
2019-01-11T16:08:15.337Z,79.85
2019-01-11T16:11:03.256Z,80.42
2019-01-11T16:13:31.925Z,78.72
2019-01-11T16:16:02.392Z,78.71
2019-01-11T16:18:31.035Z,79.13
2019-01-11T16:20:59.778Z,79.05
2019-01-11T16:23:28.488Z,79.05
2019-01-11T16:25:57.131Z,79.87
2019-01-11T16:28:25.832Z,79.86
2019-01-11T16:30:54.529Z,79.61
2019-01-11T16:33:23.174Z,78.84
2019-01-11T16:35:51.872Z,78.84
2019-01-11T16:38:20.509Z,79.13
2019-01-11T16:40:49.393Z,78.56
2019-01-11T16:43:18.041Z,77.84
2019-01-11T16:45:46.750Z,78.05
2019-01-11T16:48:15.514Z,78.24
2019-01-11T16:50:44.143Z,78.24
2019-01-11T16:53:12.778Z,77.86
2019-01-11T16:55:41.477Z,77.92
2019-01-11T16:58:10.178Z,77.95
2019-01-11T17:00:38.865Z,77.95
2019-01-11T17:03:07.608Z,77.33
2019-01-11T17:05:36.326Z,78.20
2019-01-11T17:08:05.017Z,77.77
2019-01-11T17:10:33.695Z,78.15
2019-01-11T17:13:02.410Z,78.12
2019-01-11T17:15:31.039Z,77.60
2019-01-11T17:17:59.724Z,78.24
2019-01-11T17:20:28.432Z,77.80
2019-01-11T17:22:57.146Z,77.46
2019-01-11T17:25:26.705Z,77.46
2019-01-11T17:27:55.391Z,78.11
2019-01-11T17:30:24.085Z,78.29
2019-01-11T17:32:52.841Z,78.08
2019-01-11T17:35:21.481Z,78.92
2019-01-11T17:37:50.180Z,79.14
2019-01-11T17:40:18.870Z,79.01
2019-01-11T17:42:47.506Z,78.68
2019-01-11T17:45:16.209Z,79.46
2019-01-11T17:47:44.873Z,79.54
2019-01-11T17:50:15.497Z,79.17
2019-01-11T17:52:44.201Z,79.21
2019-01-11T17:55:13.051Z,79.19
2019-01-11T17:57:41.745Z,79.19
2019-01-11T18:00:13.325Z,79.18
2019-01-11T18:02:41.996Z,79.98
2019-01-11T18:05:12.636Z,78.45
2019-01-11T18:07:41.764Z,79.06
2019-01-11T18:10:16.463Z,78.30
2019-01-11T18:12:45.086Z,77.87
2019-01-11T18:15:19.308Z,77.68
2019-01-11T18:17:48.110Z,77.12
2019-01-11T18:20:19.518Z,77.54
2019-01-11T18:22:48.153Z,78.33
2019-01-11T18:25:17.010Z,78.45
2019-01-11T18:27:45.729Z,77.97
2019-01-11T18:30:18.559Z,79.18
2019-01-11T18:32:47.444Z,77.08
2019-01-11T18:35:16.591Z,77.90
2019-01-11T18:37:45.377Z,77.98
2019-01-11T18:40:19.465Z,77.83
2019-01-11T18:42:48.095Z,77.66
2019-01-11T18:45:16.993Z,78.16
2019-01-11T18:47:45.674Z,78.06
2019-01-11T18:50:16.998Z,78.39
2019-01-11T18:52:45.636Z,77.39
2019-01-11T18:55:14.583Z,78.26
2019-01-11T18:57:43.395Z,78.53
2019-01-11T19:00:17.715Z,79.04
2019-01-11T19:02:46.635Z,78.79
2019-01-11T19:05:15.853Z,78.83
2019-01-11T19:07:46.091Z,78.46
2019-01-11T19:10:17.326Z,78.99
2019-01-11T19:12:46.018Z,79.69
2019-01-11T19:15:23.411Z,79.69
2019-01-11T19:17:52.056Z,79.49
2019-01-11T19:20:25.938Z,80.17
2019-01-11T19:22:54.894Z,80.06
2019-01-11T19:25:23.508Z,80.49
2019-01-11T19:27:52.138Z,80.26
2019-01-11T19:30:22.778Z,80.64
2019-01-11T19:32:51.498Z,81.21
2019-01-11T19:35:20.129Z,81.28
2019-01-11T19:37:48.938Z,81.79
2019-01-11T19:40:18.058Z,81.64
2019-01-11T19:42:47.575Z,82.23
2019-01-11T19:45:17.394Z,82.68
2019-01-11T19:47:46.104Z,82.72
2019-01-11T19:50:22.106Z,82.72
2019-01-11T19:52:50.874Z,82.61
2019-01-11T19:55:20.283Z,82.69
2019-01-11T19:57:49.125Z,83.24
2019-01-11T20:00:23.130Z,83.63
2019-01-11T20:02:51.966Z,83.13
2019-01-11T20:05:20.965Z,83.25
2019-01-11T20:07:50.041Z,83.27
2019-01-11T20:10:24.451Z,83.61
2019-01-11T20:12:53.100Z,83.20
2019-01-11T20:15:21.865Z,83.52
2019-01-11T20:17:50.554Z,84.00
2019-01-11T20:20:19.191Z,83.11
2019-01-11T20:22:47.890Z,83.11
2019-01-11T20:25:18.891Z,84.69
2019-01-11T20:27:47.793Z,84.46
2019-01-11T20:30:21.972Z,84.59
2019-01-11T20:32:50.767Z,85.02
2019-01-11T20:35:19.471Z,85.18
2019-01-11T20:37:48.128Z,84.71
2019-01-11T20:40:17.734Z,84.79
2019-01-11T20:42:46.551Z,85.84
2019-01-11T20:45:17.332Z,86.56
2019-01-11T20:47:45.966Z,86.86
2019-01-11T20:50:17.039Z,87.45
2019-01-11T20:52:45.825Z,87.40
2019-01-11T20:55:14.611Z,87.09
2019-01-11T20:57:43.674Z,88.05
2019-01-11T21:00:17.835Z,88.05
2019-01-11T21:02:46.532Z,88.38
2019-01-11T21:05:21.444Z,88.32
2019-01-11T21:07:50.333Z,88.83
2019-01-11T21:10:19.324Z,88.52
2019-01-11T21:12:47.967Z,88.29
2019-01-11T21:15:19.765Z,88.65
2019-01-11T21:17:48.714Z,88.51
2019-01-11T21:20:19.441Z,88.21
2019-01-11T21:22:48.897Z,89.00
2019-01-11T21:25:19.259Z,89.36
2019-01-11T21:27:48.282Z,89.17
2019-01-11T21:30:22.458Z,89.73
2019-01-11T21:32:51.088Z,89.48
2019-01-11T21:35:19.893Z,89.36
2019-01-11T21:37:48.587Z,89.71
2019-01-11T21:40:19.478Z,89.60
2019-01-11T21:42:48.814Z,89.06
2019-01-11T21:45:18.171Z,88.85
2019-01-11T21:47:46.940Z,88.94
2019-01-11T21:50:18.133Z,89.62
2019-01-11T21:52:47.061Z,89.29
2019-01-11T21:55:15.981Z,89.86
2019-01-11T21:57:45.416Z,89.68
2019-01-11T22:00:19.881Z,89.48
2019-01-11T22:02:48.589Z,89.10
2019-01-11T22:05:17.511Z,89.18
2019-01-11T22:07:46.175Z,89.50
2019-01-11T22:10:16.410Z,88.72
2019-01-11T22:12:45.103Z,88.96
2019-01-11T22:15:18.460Z,89.13
2019-01-11T22:17:47.174Z,89.08
2019-01-11T22:20:17.365Z,89.33
2019-01-11T22:22:46.115Z,89.09
2019-01-11T22:25:16.337Z,89.27
2019-01-11T22:27:44.968Z,89.67
2019-01-11T22:30:16.682Z,89.64
2019-01-11T22:32:45.307Z,89.34
2019-01-11T22:35:14.417Z,90.01
2019-01-11T22:37:43.234Z,90.02
2019-01-11T22:40:14.369Z,89.95
2019-01-11T22:42:43.002Z,90.02
2019-01-11T22:45:13.991Z,89.84
2019-01-11T22:47:42.660Z,89.90
2019-01-11T22:50:16.052Z,90.04
2019-01-11T22:52:45.019Z,89.62
2019-01-11T22:55:15.614Z,89.80
2019-01-11T22:57:44.372Z,89.57
2019-01-11T23:00:41.554Z,89.57
2019-01-11T23:03:15.849Z,90.10
2019-01-11T23:05:44.627Z,89.79
2019-01-11T23:08:15.468Z,89.89
2019-01-11T23:10:58.730Z,89.87
2019-01-11T23:13:27.475Z,89.54
2019-01-11T23:15:56.113Z,89.63
2019-01-11T23:18:24.741Z,89.80
2019-01-11T23:20:53.472Z,89.03
2019-01-11T23:23:22.159Z,88.80
2019-01-11T23:25:50.814Z,88.72
2019-01-11T23:28:19.485Z,88.60
2019-01-11T23:30:48.195Z,88.87
2019-01-11T23:33:16.852Z,88.57
2019-01-11T23:35:45.528Z,87.86
2019-01-11T23:38:14.175Z,88.15
2019-01-11T23:40:42.875Z,88.47
2019-01-11T23:43:11.650Z,88.63
2019-01-11T23:45:40.281Z,89.13
2019-01-11T23:48:08.909Z,88.35
2019-01-11T23:50:37.681Z,88.66
2019-01-11T23:53:06.519Z,88.10
2019-01-11T23:55:35.160Z,88.77
2019-01-11T23:58:03.825Z,89.45
